Time;durP1;ratioP1;P1;durP2;ratioP2;P2;SDS_P1;SDS_P2;PMS_P1;PMS_P2;Temp;Humidity;BMP_temperature;BMP_pressure;BME280_temperature;BME280_humidity;BME280_pressure;Samples;Min_cycle;Max_cycle;Signal;HPM_P1;HPM_P2
2023/04/17 00:01:37;;;;;;;22.95;17.50;;;8.80;99.90;;;;;;4976039;28;20003;-95
2023/04/17 00:04:03;;;;;;;25.02;18.50;;;8.90;99.90;;;;;;4974398;28;20113;-95
2023/04/17 00:06:32;;;;;;;23.77;17.63;;;8.90;99.90;;;;;;4975132;28;20027;-96
2023/04/17 00:08:58;;;;;;;21.67;17.30;;;9.00;99.90;;;;;;4975519;28;20030;-96
2023/04/17 00:11:23;;;;;;;23.67;16.40;;;8.70;99.90;;;;;;4975424;28;20029;-95
2023/04/17 00:13:49;;;;;;;21.85;16.33;;;8.80;99.90;;;;;;4974115;28;20502;-95
2023/04/17 00:16:15;;;;;;;23.13;17.05;;;8.80;99.90;;;;;;4975873;28;20509;-95
2023/04/17 00:18:40;;;;;;;25.52;17.13;;;8.80;99.90;;;;;;4974666;28;20514;-95
2023/04/17 00:21:06;;;;;;;21.33;16.48;;;8.80;99.90;;;;;;4975218;28;20031;-95
2023/04/17 00:23:31;;;;;;;23.13;16.42;;;8.70;99.90;;;;;;4973843;28;20054;-95
2023/04/17 00:25:57;;;;;;;24.05;16.90;;;9.20;99.90;;;;;;4975033;28;20051;-94
2023/04/17 00:28:23;;;;;;;22.77;16.70;;;8.80;99.90;;;;;;4960680;28;20043;-95
2023/04/17 00:30:48;;;;;;;21.27;16.27;;;8.80;99.90;;;;;;4955882;28;20024;-95
2023/04/17 00:33:14;;;;;;;19.45;15.85;;;8.80;99.90;;;;;;4955323;28;20399;-95
2023/04/17 00:35:40;;;;;;;20.98;16.13;;;9.10;99.90;;;;;;4954622;29;20118;-95
2023/04/17 00:38:08;;;;;;;25.30;16.80;;;9.10;99.90;;;;;;4956273;29;20042;-95
2023/04/17 00:40:33;;;;;;;20.95;16.17;;;8.70;99.90;;;;;;4955567;29;20427;-95
2023/04/17 00:43:03;;;;;;;21.60;16.52;;;8.70;99.90;;;;;;4954601;29;20150;-95
2023/04/17 00:45:29;;;;;;;21.80;16.77;;;9.00;99.90;;;;;;4957943;28;20031;-96
2023/04/17 00:47:58;;;;;;;22.13;16.38;;;8.60;99.90;;;;;;4974142;28;20117;-95
2023/04/17 00:50:26;;;;;;;23.30;17.35;;;8.60;99.90;;;;;;4974865;28;20031;-94
2023/04/17 00:52:51;;;;;;;21.38;16.55;;;8.60;99.90;;;;;;4974296;28;20410;-95
2023/04/17 00:55:17;;;;;;;21.90;15.88;;;8.60;99.90;;;;;;4974847;28;20089;-95
2023/04/17 00:57:43;;;;;;;23.27;16.58;;;8.60;99.90;;;;;;4973772;28;20027;-95
2023/04/17 01:00:10;;;;;;;20.95;17.13;;;8.60;99.90;;;;;;4974121;28;20062;-96
2023/04/17 01:02:36;;;;;;;20.38;16.75;;;8.60;99.90;;;;;;4973906;28;20081;-95
2023/04/17 01:05:02;;;;;;;22.98;16.95;;;8.60;99.90;;;;;;4975650;28;20029;-95
2023/04/17 01:07:29;;;;;;;22.05;16.60;;;8.50;99.90;;;;;;4974523;28;20122;-95
2023/04/17 01:09:55;;;;;;;22.27;17.08;;;9.20;99.90;;;;;;4974821;28;20031;-94
2023/04/17 01:12:22;;;;;;;20.90;16.25;;;8.80;99.90;;;;;;4975006;28;20039;-96
2023/04/17 01:14:52;;;;;;;22.98;16.40;;;8.70;99.90;;;;;;4974967;28;20055;-95
2023/04/17 01:17:18;;;;;;;20.13;16.63;;;8.70;99.90;;;;;;4974124;28;20031;-95
2023/04/17 01:19:45;;;;;;;20.65;15.95;;;8.40;99.90;;;;;;4974241;28;20102;-95
2023/04/17 01:22:11;;;;;;;21.75;16.58;;;8.60;99.90;;;;;;4973946;28;20062;-95
2023/04/17 01:24:36;;;;;;;21.20;16.00;;;8.60;99.90;;;;;;4974903;28;20070;-95
2023/04/17 01:27:03;;;;;;;21.17;15.88;;;8.60;99.90;;;;;;4974200;28;20039;-95
2023/04/17 01:29:29;;;;;;;20.77;15.55;;;8.70;99.90;;;;;;4964629;28;20448;-95
2023/04/17 01:31:55;;;;;;;21.25;15.23;;;8.60;99.90;;;;;;4954510;29;20162;-95
2023/04/17 01:34:21;;;;;;;24.10;16.02;;;9.10;99.90;;;;;;4954936;28;20063;-96
2023/04/17 01:36:46;;;;;;;20.55;15.77;;;8.60;99.90;;;;;;4953706;29;20031;-95
2023/04/17 01:39:12;;;;;;;23.15;16.95;;;8.80;99.90;;;;;;4954736;28;20054;-95
2023/04/17 01:41:38;;;;;;;20.70;15.82;;;8.70;99.90;;;;;;4953343;29;20472;-96
2023/04/17 01:44:03;;;;;;;19.63;15.50;;;9.10;99.90;;;;;;4954850;29;20031;-95
2023/04/17 01:46:29;;;;;;;18.70;15.85;;;8.90;99.90;;;;;;4964348;28;20039;-96
2023/04/17 01:48:55;;;;;;;20.67;16.20;;;8.80;99.90;;;;;;4974866;28;20058;-96
2023/04/17 01:51:21;;;;;;;20.52;15.80;;;8.70;99.90;;;;;;4974242;28;20031;-96
2023/04/17 01:53:46;;;;;;;21.50;15.82;;;8.70;99.90;;;;;;4974567;28;20037;-96
2023/04/17 01:56:12;;;;;;;20.77;15.73;;;9.00;99.90;;;;;;4972904;28;20029;-95
2023/04/17 01:58:38;;;;;;;21.83;15.82;;;8.50;99.90;;;;;;4974323;28;20023;-95
2023/04/17 02:01:05;;;;;;;17.90;14.55;;;8.40;99.90;;;;;;4973862;28;20098;-94
2023/04/17 02:03:31;;;;;;;20.65;15.63;;;8.40;99.90;;;;;;4973876;28;20034;-95
2023/04/17 02:05:56;;;;;;;20.20;14.82;;;8.70;99.90;;;;;;4972854;28;20038;-95
2023/04/17 02:08:22;;;;;;;19.25;15.98;;;8.50;99.90;;;;;;4973925;28;20050;-95
2023/04/17 02:10:48;;;;;;;19.35;15.45;;;8.50;99.90;;;;;;4974950;28;20038;-95
2023/04/17 02:13:14;;;;;;;21.55;16.60;;;8.50;99.90;;;;;;4977438;28;20108;-95
2023/04/17 02:15:40;;;;;;;21.48;16.50;;;8.60;99.90;;;;;;4977625;28;20078;-95
2023/04/17 02:18:06;;;;;;;18.77;16.35;;;8.60;99.90;;;;;;4976436;28;20031;-96
2023/04/17 02:20:33;;;;;;;18.58;15.55;;;9.00;99.90;;;;;;4976606;28;20058;-95
2023/04/17 02:23:00;;;;;;;21.42;15.18;;;8.60;99.90;;;;;;4977174;28;20050;-95
2023/04/17 02:25:26;;;;;;;20.20;16.13;;;8.40;99.90;;;;;;4976181;28;20023;-95
2023/04/17 02:27:53;;;;;;;19.88;15.55;;;8.40;99.90;;;;;;4976903;28;20042;-96
2023/04/17 02:30:19;;;;;;;20.15;15.02;;;8.60;99.90;;;;;;4964677;28;20035;-95
2023/04/17 02:32:45;;;;;;;16.95;14.52;;;8.60;99.90;;;;;;4958216;29;20527;-95
2023/04/17 02:35:10;;;;;;;22.45;16.25;;;8.60;99.90;;;;;;4957640;29;20027;-95
2023/04/17 02:37:36;;;;;;;20.05;15.50;;;8.40;99.90;;;;;;4956553;29;20032;-95
2023/04/17 02:40:06;;;;;;;17.52;14.85;;;8.40;99.90;;;;;;4956905;29;20038;-95
2023/04/17 02:42:31;;;;;;;22.65;16.50;;;8.40;99.90;;;;;;4957628;29;20037;-95
2023/04/17 02:44:57;;;;;;;20.17;16.00;;;8.50;99.90;;;;;;4957214;29;20023;-95
2023/04/17 02:47:23;;;;;;;21.88;15.88;;;8.30;99.90;;;;;;4974567;28;20062;-95
2023/04/17 02:49:48;;;;;;;21.60;15.98;;;8.50;99.90;;;;;;4976606;28;20038;-96
2023/04/17 02:52:14;;;;;;;23.20;16.77;;;8.50;99.90;;;;;;4977458;28;20037;-96
2023/04/17 02:54:39;;;;;;;18.95;15.73;;;8.40;99.90;;;;;;4976618;28;20483;-95
2023/04/17 02:57:05;;;;;;;20.13;16.17;;;8.40;99.90;;;;;;4975583;28;20459;-95
2023/04/17 02:59:31;;;;;;;21.92;16.05;;;8.60;99.90;;;;;;4975223;28;20382;-95
2023/04/17 03:01:59;;;;;;;22.30;15.95;;;8.40;99.90;;;;;;4977073;28;20479;-95
2023/04/17 03:04:26;;;;;;;20.92;15.73;;;8.50;99.90;;;;;;4974759;28;20035;-95
2023/04/17 03:06:52;;;;;;;21.25;15.52;;;8.40;99.90;;;;;;4976506;28;20034;-95
2023/04/17 03:09:21;;;;;;;19.88;15.80;;;8.50;99.90;;;;;;4976173;28;20023;-95
2023/04/17 03:11:47;;;;;;;21.05;16.65;;;8.50;99.90;;;;;;4976918;28;20546;-95
2023/04/17 03:14:13;;;;;;;19.88;15.48;;;8.60;99.90;;;;;;4976658;28;20027;-95
2023/04/17 03:16:38;;;;;;;21.10;17.10;;;8.90;99.90;;;;;;4976487;28;20027;-95
2023/04/17 03:19:04;;;;;;;25.50;17.33;;;8.50;99.90;;;;;;4976451;28;20399;-95
2023/04/17 03:21:30;;;;;;;21.65;16.52;;;8.60;99.90;;;;;;4975825;28;20123;-96
2023/04/17 03:23:56;;;;;;;21.13;15.95;;;8.60;99.90;;;;;;4974654;28;20047;-95
2023/04/17 03:26:21;;;;;;;20.90;16.60;;;8.80;99.90;;;;;;4977514;28;20463;-95
2023/04/17 03:28:47;;;;;;;20.00;16.00;;;8.50;99.90;;;;;;4976898;28;20046;-96
2023/04/17 03:31:13;;;;;;;19.60;15.57;;;8.80;99.90;;;;;;4956721;28;20027;-95
2023/04/17 03:33:38;;;;;;;19.25;15.45;;;8.90;99.90;;;;;;4955986;29;20031;-95
2023/04/17 03:36:05;;;;;;;22.10;16.30;;;8.70;99.90;;;;;;4956333;28;20023;-95
2023/04/17 03:38:30;;;;;;;23.20;16.42;;;8.50;99.90;;;;;;4956361;29;20077;-94
2023/04/17 03:40:56;;;;;;;19.08;15.55;;;8.60;99.90;;;;;;4956475;29;20015;-96
2023/04/17 03:43:22;;;;;;;21.77;16.55;;;8.80;99.90;;;;;;4956228;28;20027;-95
2023/04/17 03:45:47;;;;;;;22.38;16.65;;;8.60;99.90;;;;;;4961137;28;20027;-95
2023/04/17 03:48:13;;;;;;;20.15;15.35;;;8.60;99.90;;;;;;4974831;28;20046;-95
2023/04/17 03:50:39;;;;;;;21.15;15.75;;;8.60;99.90;;;;;;4974729;28;20015;-95
2023/04/17 03:53:04;;;;;;;21.92;16.40;;;8.50;99.90;;;;;;4975345;28;20518;-94
2023/04/17 03:55:30;;;;;;;21.90;16.13;;;8.40;99.90;;;;;;4974290;28;20507;-95
2023/04/17 03:57:56;;;;;;;21.50;16.33;;;8.40;99.90;;;;;;4975032;28;20102;-95
2023/04/17 04:00:21;;;;;;;20.10;16.95;;;8.50;99.90;;;;;;4974927;28;20030;-95
2023/04/17 04:02:47;;;;;;;22.83;17.40;;;8.60;99.90;;;;;;4974784;28;20105;-95
2023/04/17 04:05:13;;;;;;;21.55;17.02;;;8.50;99.90;;;;;;4968357;28;20554;-95
2023/04/17 04:07:39;;;;;;;21.48;15.88;;;8.60;99.90;;;;;;4955197;29;20031;-95
2023/04/17 04:10:05;;;;;;;19.42;15.57;;;8.60;99.90;;;;;;4956724;28;20499;-95
2023/04/17 04:12:31;;;;;;;20.83;16.60;;;8.70;99.90;;;;;;4954805;29;20481;-94
2023/04/17 04:14:56;;;;;;;19.63;15.57;;;8.50;99.90;;;;;;4956492;29;20046;-94
2023/04/17 04:17:22;;;;;;;19.83;16.38;;;8.70;99.90;;;;;;4955473;29;20035;-95
2023/04/17 04:19:48;;;;;;;21.17;15.98;;;8.50;99.90;;;;;;4955229;29;20070;-95
2023/04/17 04:22:13;;;;;;;18.52;16.05;;;8.70;99.90;;;;;;4956487;29;20469;-95
2023/04/17 04:24:39;;;;;;;22.73;16.45;;;8.60;99.90;;;;;;4956426;29;20478;-95
2023/04/17 04:27:05;;;;;;;20.75;15.82;;;8.50;99.90;;;;;;4955150;29;20027;-95
2023/04/17 04:29:32;;;;;;;24.13;19.38;;;8.60;99.90;;;;;;4954815;29;20035;-95
2023/04/17 04:31:57;;;;;;;22.92;17.23;;;8.60;99.90;;;;;;4971707;28;20122;-94
2023/04/17 04:34:24;;;;;;;22.13;17.40;;;8.60;99.90;;;;;;4974778;28;20113;-95
2023/04/17 04:36:50;;;;;;;21.77;16.08;;;8.60;99.90;;;;;;4974882;28;20050;-95
2023/04/17 04:39:20;;;;;;;21.38;16.55;;;8.80;99.90;;;;;;4974631;28;20069;-95
2023/04/17 04:41:50;;;;;;;120.03;76.80;;;8.80;99.90;;;;;;4975010;28;20050;-95
2023/04/17 04:44:19;;;;;;;44.85;32.35;;;8.70;99.90;;;;;;4975183;28;20035;-94
2023/04/17 04:46:45;;;;;;;20.98;17.00;;;8.60;99.90;;;;;;4974844;28;20082;-94
2023/04/17 04:49:11;;;;;;;34.60;28.38;;;8.60;99.90;;;;;;4974702;28;20503;-94
2023/04/17 04:51:38;;;;;;;26.17;20.30;;;8.60;99.90;;;;;;4975756;28;20069;-95
2023/04/17 04:54:04;;;;;;;31.17;25.13;;;8.70;99.90;;;;;;4974389;28;20031;-95
2023/04/17 04:56:30;;;;;;;21.25;17.25;;;8.70;99.90;;;;;;4973557;28;20045;-95
2023/04/17 04:58:56;;;;;;;20.35;16.20;;;8.60;99.90;;;;;;4974996;28;20491;-95
2023/04/17 05:01:22;;;;;;;19.00;15.18;;;8.60;99.90;;;;;;4973318;28;20026;-95
2023/04/17 05:03:47;;;;;;;17.02;14.60;;;8.50;99.90;;;;;;4974587;28;20035;-95
2023/04/17 05:06:13;;;;;;;19.50;15.57;;;8.70;99.90;;;;;;4973450;28;20066;-95
2023/04/17 05:08:39;;;;;;;19.73;15.98;;;9.10;99.90;;;;;;4973282;28;20500;-95
2023/04/17 05:11:05;;;;;;;20.45;14.90;;;8.60;99.90;;;;;;4974624;28;20035;-94
2023/04/17 05:13:31;;;;;;;27.73;20.88;;;8.70;99.90;;;;;;4973093;28;20062;-95
2023/04/17 05:15:56;;;;;;;28.42;21.08;;;8.60;99.90;;;;;;4974629;28;20037;-95
2023/04/17 05:18:22;;;;;;;25.75;18.83;;;9.00;99.90;;;;;;4974348;28;20085;-95
2023/04/17 05:20:48;;;;;;;20.58;15.52;;;8.60;99.90;;;;;;4974446;28;20031;-94
2023/04/17 05:23:14;;;;;;;20.13;16.63;;;8.60;99.90;;;;;;4972682;28;20050;-95
2023/04/17 05:25:40;;;;;;;19.85;16.35;;;8.60;99.90;;;;;;4974640;28;20042;-95
2023/04/17 05:28:06;;;;;;;20.63;16.02;;;8.70;99.90;;;;;;4974864;28;20015;-94
2023/04/17 05:30:32;;;;;;;20.75;15.48;;;8.70;99.90;;;;;;4973967;28;20054;-95
2023/04/17 05:32:59;;;;;;;19.80;15.23;;;8.80;99.90;;;;;;4961118;28;20039;-96
2023/04/17 05:35:26;;;;;;;20.27;15.52;;;8.70;99.90;;;;;;4955118;28;20114;-94
2023/04/17 05:37:52;;;;;;;21.05;16.40;;;8.50;99.90;;;;;;4953796;29;20030;-95
2023/04/17 05:40:17;;;;;;;19.75;15.82;;;8.70;99.90;;;;;;4954948;29;20059;-95
2023/04/17 05:42:43;;;;;;;18.58;14.25;;;9.00;99.90;;;;;;4955263;29;20024;-95
2023/04/17 05:45:14;;;;;;;19.10;14.77;;;8.80;99.90;;;;;;4955708;28;20031;-95
2023/04/17 05:47:40;;;;;;;20.35;15.35;;;9.10;99.90;;;;;;4977480;28;20041;-94
2023/04/17 05:50:07;;;;;;;17.92;15.10;;;8.70;99.90;;;;;;4978040;28;20460;-95
2023/04/17 05:52:33;;;;;;;17.95;14.85;;;8.90;99.90;;;;;;4976527;28;20047;-93
2023/04/17 05:54:59;;;;;;;16.85;13.95;;;9.00;99.90;;;;;;4978581;28;20101;-95
2023/04/17 05:57:24;;;;;;;20.15;14.68;;;9.00;99.90;;;;;;4978099;28;20023;-94
2023/04/17 05:59:50;;;;;;;16.95;14.20;;;9.00;99.90;;;;;;4976575;28;20090;-95
2023/04/17 06:02:16;;;;;;;19.13;14.23;;;9.20;99.90;;;;;;4977620;28;20102;-95
2023/04/17 06:04:45;;;;;;;19.35;14.20;;;8.90;99.90;;;;;;4977740;28;20089;-95
2023/04/17 06:07:11;;;;;;;18.02;14.70;;;9.20;99.90;;;;;;4965093;28;20066;-95
2023/04/17 06:09:37;;;;;;;16.35;14.23;;;8.90;99.90;;;;;;4958571;28;20027;-94
2023/04/17 06:12:06;;;;;;;17.55;14.50;;;9.00;99.90;;;;;;4961940;28;20041;-95
2023/04/17 06:14:32;;;;;;;20.48;15.30;;;9.10;99.90;;;;;;4977893;28;20054;-91
2023/04/17 06:16:57;;;;;;;17.23;14.57;;;9.00;99.90;;;;;;4975068;28;20027;-89
2023/04/17 06:19:23;;;;;;;19.05;14.48;;;9.20;99.90;;;;;;4976593;28;20030;-88
2023/04/17 06:21:49;;;;;;;20.70;15.50;;;9.20;99.90;;;;;;4976327;28;20038;-89
2023/04/17 06:24:15;;;;;;;17.75;14.15;;;9.30;99.90;;;;;;4976046;28;20058;-88
2023/04/17 06:26:41;;;;;;;16.50;13.82;;;9.60;99.90;;;;;;4963253;28;20101;-87
2023/04/17 06:29:07;;;;;;;17.45;13.68;;;9.70;99.90;;;;;;4976536;28;20042;-88
2023/04/17 06:31:33;;;;;;;23.85;15.20;;;9.50;99.90;;;;;;4968971;28;20043;-89
2023/04/17 06:33:59;;;;;;;18.20;13.65;;;9.40;99.90;;;;;;4972007;28;20055;-86
2023/04/17 06:36:25;;;;;;;15.68;13.18;;;9.40;99.90;;;;;;4966760;28;20039;-86
2023/04/17 06:38:51;;;;;;;14.45;12.48;;;9.50;99.90;;;;;;4956779;29;20023;-86
2023/04/17 06:41:17;;;;;;;15.23;12.07;;;9.40;99.90;;;;;;4970271;28;20034;-86
2023/04/17 06:43:42;;;;;;;13.15;10.77;;;9.40;99.90;;;;;;4980448;28;20028;-87
2023/04/17 06:46:08;;;;;;;13.00;11.55;;;9.50;99.90;;;;;;4964132;28;20169;-88
2023/04/17 06:48:34;;;;;;;15.15;11.98;;;9.40;99.90;;;;;;4967951;28;20038;-88
2023/04/17 06:50:59;;;;;;;13.80;11.57;;;9.40;99.90;;;;;;4975146;28;20416;-88
2023/04/17 06:53:25;;;;;;;13.73;11.85;;;9.50;99.90;;;;;;4975820;28;20479;-89
2023/04/17 06:55:52;;;;;;;15.10;11.13;;;9.50;99.90;;;;;;4963789;28;20033;-89
2023/04/17 06:58:18;;;;;;;12.20;10.82;;;9.50;99.90;;;;;;4975270;28;20384;-89
2023/04/17 07:00:44;;;;;;;13.32;11.15;;;9.50;99.90;;;;;;4975299;28;20081;-87
2023/04/17 07:03:10;;;;;;;13.63;11.43;;;9.40;99.90;;;;;;4975475;28;20034;-85
2023/04/17 07:05:35;;;;;;;15.00;11.77;;;9.50;99.90;;;;;;4974779;28;20027;-87
2023/04/17 07:08:01;;;;;;;12.50;11.05;;;9.50;99.90;;;;;;4974885;28;20045;-85
2023/04/17 07:10:27;;;;;;;13.93;11.82;;;9.60;99.90;;;;;;4975408;28;20031;-86
2023/04/17 07:12:53;;;;;;;14.38;11.45;;;9.50;99.90;;;;;;4975249;28;20031;-87
2023/04/17 07:15:19;;;;;;;12.90;10.88;;;9.50;99.90;;;;;;4974860;28;20039;-86
2023/04/17 07:17:45;;;;;;;15.82;12.00;;;9.50;99.90;;;;;;4976505;28;20066;-88
2023/04/17 07:20:11;;;;;;;14.10;10.95;;;9.50;99.90;;;;;;4973219;28;20026;-87
2023/04/17 07:22:37;;;;;;;13.75;10.95;;;9.60;99.90;;;;;;4971850;28;20131;-92
2023/04/17 07:25:03;;;;;;;13.63;10.98;;;9.60;99.90;;;;;;4966381;28;20114;-87
2023/04/17 07:27:29;;;;;;;13.00;10.93;;;9.50;99.90;;;;;;4971001;28;20046;-89
2023/04/17 07:29:55;;;;;;;14.13;11.15;;;9.70;99.90;;;;;;4975235;28;20418;-89
2023/04/17 07:32:23;;;;;;;13.70;11.07;;;9.70;99.90;;;;;;4975526;28;20101;-88
2023/04/17 07:34:49;;;;;;;13.52;11.65;;;9.70;99.90;;;;;;4961289;28;20039;-86
2023/04/17 07:37:15;;;;;;;14.02;11.10;;;9.80;99.90;;;;;;4972590;28;20103;-87
2023/04/17 07:39:41;;;;;;;14.93;11.38;;;9.90;99.90;;;;;;4973838;28;20031;-88
2023/04/17 07:42:07;;;;;;;14.60;10.70;;;9.90;99.90;;;;;;4975224;28;20027;-88
2023/04/17 07:44:34;;;;;;;12.90;11.15;;;9.90;99.90;;;;;;4974456;28;20035;-88
2023/04/17 07:47:00;;;;;;;13.75;11.10;;;10.00;99.90;;;;;;4984109;28;20384;-88
2023/04/17 07:49:25;;;;;;;13.20;10.88;;;10.00;99.90;;;;;;4974356;28;20483;-88
2023/04/17 07:51:51;;;;;;;12.70;11.02;;;10.00;99.90;;;;;;4967545;28;20106;-88
2023/04/17 07:54:17;;;;;;;14.98;11.23;;;10.00;99.90;;;;;;4953830;28;20027;-88
2023/04/17 07:56:45;;;;;;;14.02;10.48;;;10.20;99.90;;;;;;4956696;28;20070;-88
2023/04/17 07:59:15;;;;;;;14.90;11.88;;;10.20;99.90;;;;;;4974894;28;20035;-88
2023/04/17 08:01:41;;;;;;;14.35;10.82;;;10.40;99.90;;;;;;4961596;28;20043;-88
2023/04/17 08:04:07;;;;;;;14.93;11.60;;;10.30;99.90;;;;;;4953573;29;20026;-88
2023/04/17 08:06:33;;;;;;;15.25;11.43;;;10.30;99.90;;;;;;4961320;28;20030;-88
2023/04/17 08:09:01;;;;;;;14.65;11.23;;;10.40;99.90;;;;;;4973390;28;20038;-88
2023/04/17 08:11:27;;;;;;;13.88;11.18;;;10.40;99.90;;;;;;4973793;28;20027;-88
2023/04/17 08:13:54;;;;;;;14.73;11.20;;;10.40;99.90;;;;;;4956367;28;20059;-88
2023/04/17 08:16:20;;;;;;;14.25;12.02;;;10.80;99.90;;;;;;4955546;28;20032;-88
2023/04/17 08:18:46;;;;;;;15.25;12.05;;;10.30;99.90;;;;;;4957340;28;20027;-88
2023/04/17 08:21:11;;;;;;;12.35;10.93;;;10.40;99.90;;;;;;4974224;28;20081;-88
2023/04/17 08:23:37;;;;;;;15.00;11.73;;;10.40;99.90;;;;;;4962931;28;20131;-87
2023/04/17 08:26:03;;;;;;;14.43;11.30;;;10.50;99.90;;;;;;4971445;28;20055;-87
2023/04/17 08:28:29;;;;;;;12.77;10.55;;;10.40;99.90;;;;;;4969876;28;20114;-87
2023/04/17 08:30:55;;;;;;;14.10;10.95;;;10.30;99.90;;;;;;4954713;29;20032;-87
2023/04/17 08:33:21;;;;;;;14.55;11.73;;;10.50;99.90;;;;;;4954124;29;20031;-88
2023/04/17 08:35:47;;;;;;;13.27;11.05;;;10.60;99.90;;;;;;4962272;28;20105;-88
2023/04/17 08:38:13;;;;;;;13.50;10.68;;;10.80;99.90;;;;;;4954243;28;20032;-87
2023/04/17 08:40:45;;;;;;;13.88;11.20;;;10.50;99.90;;;;;;4971519;28;20026;-87
2023/04/17 08:43:16;;;;;;;13.30;11.57;;;10.40;99.90;;;;;;4967790;28;20525;-87
2023/04/17 08:45:54;;;;;;;15.07;10.95;;;10.40;99.90;;;;;;4961641;28;20102;-88
2023/04/17 08:48:20;;;;;;;14.70;11.68;;;10.50;99.90;;;;;;4954424;29;20039;-87
2023/04/17 08:50:48;;;;;;;15.40;11.23;;;10.60;99.90;;;;;;4960223;28;20022;-87
2023/04/17 08:53:14;;;;;;;12.75;10.85;;;10.70;99.90;;;;;;4973623;28;20479;-86
2023/04/17 08:55:40;;;;;;;14.15;11.40;;;10.60;99.90;;;;;;4971646;28;20023;-86
2023/04/17 08:58:07;;;;;;;12.20;10.63;;;11.00;99.90;;;;;;4965696;28;20272;-87
2023/04/17 09:00:35;;;;;;;13.73;10.77;;;10.80;99.90;;;;;;4961624;28;20031;-86
2023/04/17 09:03:04;;;;;;;11.43;9.57;;;10.80;99.90;;;;;;4964851;28;20066;-86
2023/04/17 09:05:35;;;;;;;10.40;9.27;;;10.90;99.90;;;;;;4954088;29;20031;-86
2023/04/17 09:08:10;;;;;;;10.73;9.50;;;10.80;99.90;;;;;;4954950;28;20163;-86
2023/04/17 09:10:40;;;;;;;11.18;9.48;;;10.60;99.90;;;;;;4953111;28;20028;-86
2023/04/17 09:13:07;;;;;;;11.55;10.07;;;10.70;99.90;;;;;;4958360;28;20113;-85
2023/04/17 09:15:33;;;;;;;10.80;9.18;;;10.60;99.90;;;;;;4972979;28;20033;-86
2023/04/17 09:17:59;;;;;;;10.38;9.20;;;10.70;99.90;;;;;;4957006;28;20039;-87
2023/04/17 09:20:25;;;;;;;10.93;9.48;;;10.80;99.90;;;;;;4966581;28;20083;-88
2023/04/17 09:23:04;;;;;;;11.18;9.95;;;10.80;99.90;;;;;;4983107;28;20065;-88
2023/04/17 09:25:30;;;;;;;11.73;9.77;;;10.80;99.90;;;;;;4983188;28;20409;-88
2023/04/17 09:28:12;;;;;;;11.15;9.63;;;10.80;99.90;;;;;;4974120;28;20527;-91
2023/04/17 09:30:38;;;;;;;11.48;9.85;;;10.70;99.90;;;;;;4988634;28;20034;-91
2023/04/17 09:33:05;;;;;;;11.32;9.85;;;10.80;99.90;;;;;;4970989;28;20399;-91
2023/04/17 09:35:31;;;;;;;12.05;10.27;;;10.80;99.90;;;;;;4963228;28;20035;-92
2023/04/17 09:37:58;;;;;;;11.98;9.75;;;10.80;99.90;;;;;;4967031;28;20048;-90
2023/04/17 09:40:24;;;;;;;9.40;8.40;;;10.80;99.90;;;;;;4978742;28;20027;-92
2023/04/17 09:42:56;;;;;;;11.27;10.07;;;10.90;99.90;;;;;;4979135;28;20027;-93
2023/04/17 09:45:23;;;;;;;10.48;9.25;;;11.20;99.90;;;;;;4980237;28;20547;-91
2023/04/17 09:47:51;;;;;;;10.63;9.40;;;11.10;99.90;;;;;;4978954;28;20047;-88
2023/04/17 09:50:20;;;;;;;10.77;9.15;;;11.00;99.90;;;;;;4978048;28;20093;-89
2023/04/17 09:52:51;;;;;;;13.65;12.05;;;11.10;99.90;;;;;;4971501;28;20027;-89
2023/04/17 09:55:22;;;;;;;23.63;19.83;;;11.20;99.90;;;;;;4977234;28;20027;-88
2023/04/17 09:57:53;;;;;;;11.38;10.10;;;11.40;99.90;;;;;;4960245;28;20032;-88
2023/04/17 10:00:20;;;;;;;10.00;8.98;;;11.50;99.90;;;;;;4958340;29;20158;-91
2023/04/17 10:02:50;;;;;;;11.50;9.10;;;11.60;99.90;;;;;;4975301;28;20078;-91
2023/04/17 10:05:21;;;;;;;10.57;9.48;;;11.60;99.90;;;;;;4977734;28;20039;-92
2023/04/17 10:07:47;;;;;;;9.88;8.82;;;11.50;99.90;;;;;;4963477;28;20051;-90
2023/04/17 10:10:32;;;;;;;10.20;8.80;;;11.60;99.90;;;;;;4959119;28;20384;-92
2023/04/17 10:13:10;;;;;;;9.23;8.25;;;11.60;99.90;;;;;;4975815;28;20438;-93
2023/04/17 10:15:36;;;;;;;9.82;8.82;;;11.70;99.90;;;;;;4970995;28;20045;-94
2023/04/17 10:18:23;;;;;;;9.52;8.50;;;11.70;99.90;;;;;;4966952;28;20030;-91
2023/04/17 10:20:52;;;;;;;11.73;9.20;;;11.80;99.90;;;;;;4978227;28;20041;-91
2023/04/17 10:23:34;;;;;;;11.35;9.45;;;11.80;99.90;;;;;;4976058;28;20051;-91
2023/04/17 10:26:24;;;;;;;11.05;8.95;;;11.90;99.90;;;;;;4964610;28;20046;-89
2023/04/17 10:28:52;;;;;;;10.30;9.13;;;12.00;99.90;;;;;;4965019;28;20094;-89
2023/04/17 10:31:18;;;;;;;11.02;9.25;;;12.00;99.90;;;;;;4965362;28;20392;-93
2023/04/17 10:33:53;;;;;;;9.80;8.90;;;11.90;99.90;;;;;;4976198;28;20033;-94
2023/04/17 10:36:37;;;;;;;11.88;9.40;;;11.80;99.90;;;;;;4974029;28;20031;-93
2023/04/17 10:39:19;;;;;;;11.40;8.75;;;11.80;99.90;;;;;;4978560;28;20089;-93
2023/04/17 10:42:05;;;;;;;11.70;9.52;;;11.80;99.90;;;;;;4971950;28;20034;-91
2023/04/17 10:44:40;;;;;;;9.57;8.43;;;11.90;99.90;;;;;;4957436;29;20031;-92
2023/04/17 10:47:09;;;;;;;12.07;9.82;;;12.00;99.90;;;;;;4970850;28;20069;-91
2023/04/17 10:49:52;;;;;;;11.90;10.70;;;11.90;99.90;;;;;;4976126;28;20082;-92
2023/04/17 10:52:33;;;;;;;12.95;11.05;;;11.90;99.90;;;;;;4976460;28;20029;-92
2023/04/17 10:55:19;;;;;;;10.88;9.77;;;11.90;99.90;;;;;;4977308;28;20026;-92
2023/04/17 10:57:56;;;;;;;11.57;10.48;;;12.00;99.90;;;;;;4977698;28;20524;-93
2023/04/17 11:00:36;;;;;;;12.55;10.95;;;11.90;99.90;;;;;;4980595;28;20029;-90
2023/04/17 11:03:05;;;;;;;12.80;11.45;;;11.90;99.90;;;;;;4971432;28;20051;-88
2023/04/17 11:05:31;;;;;;;14.50;11.85;;;11.90;99.90;;;;;;4956932;29;20086;-92
2023/04/17 11:07:58;;;;;;;12.77;11.13;;;11.90;99.90;;;;;;4966374;28;20037;-89
2023/04/17 11:10:24;;;;;;;12.77;10.98;;;11.80;99.90;;;;;;4974008;28;20031;-90
2023/04/17 11:12:52;;;;;;;12.60;11.10;;;11.70;99.90;;;;;;4975542;28;20027;-88
2023/04/17 11:15:26;;;;;;;14.90;11.88;;;11.70;99.90;;;;;;4974906;28;20031;-88
2023/04/17 11:17:52;;;;;;;13.77;11.70;;;11.80;99.90;;;;;;4975173;28;20066;-87
2023/04/17 11:20:23;;;;;;;15.38;12.27;;;11.80;99.90;;;;;;4964495;28;20063;-89
2023/04/17 11:22:49;;;;;;;13.68;11.95;;;11.80;99.90;;;;;;4971835;28;20054;-87
2023/04/17 11:25:24;;;;;;;16.50;12.82;;;11.80;99.90;;;;;;4966324;28;20035;-85
2023/04/17 11:27:56;;;;;;;15.90;12.18;;;11.70;99.90;;;;;;4974867;28;20035;-86
2023/04/17 11:30:33;;;;;;;16.60;12.40;;;11.70;99.90;;;;;;4974954;28;20031;-86
2023/04/17 11:33:01;;;;;;;15.07;12.35;;;11.70;99.90;;;;;;4973686;28;20026;-86
2023/04/17 11:35:28;;;;;;;15.63;12.90;;;11.70;99.90;;;;;;4973987;28;20420;-86
2023/04/17 11:38:26;;;;;;;15.27;12.15;;;11.60;99.90;;;;;;4961703;28;20113;-88
2023/04/17 11:40:54;;;;;;;16.33;12.93;;;11.70;99.90;;;;;;4915111;29;20048;-88
2023/04/17 11:43:22;;;;;;;13.50;12.10;;;11.70;99.90;;;;;;4914423;29;20599;-86
2023/04/17 11:45:53;;;;;;;13.98;12.27;;;11.70;99.90;;;;;;4925210;29;20062;-86
2023/04/17 11:48:23;;;;;;;14.43;11.70;;;11.80;99.90;;;;;;4937108;29;20032;-86
2023/04/17 11:51:02;;;;;;;14.27;12.32;;;11.80;99.90;;;;;;4953154;29;20488;-86
2023/04/17 11:53:28;;;;;;;14.57;12.48;;;11.80;99.90;;;;;;4953148;29;20043;-86
2023/04/17 11:56:10;;;;;;;15.32;11.93;;;11.70;99.90;;;;;;4952494;29;20515;-85
2023/04/17 11:58:46;;;;;;;13.52;11.95;;;11.90;99.90;;;;;;4953341;29;20034;-87
2023/04/17 12:01:12;;;;;;;17.65;12.30;;;12.00;99.90;;;;;;4936902;29;20399;-86
2023/04/17 12:03:38;;;;;;;16.05;13.20;;;12.20;99.90;;;;;;4952821;29;20114;-87
2023/04/17 12:06:05;;;;;;;13.40;11.65;;;12.40;99.90;;;;;;4953052;29;20035;-86
2023/04/17 12:08:50;;;;;;;12.98;11.63;;;12.70;99.90;;;;;;4953052;29;20126;-86
2023/04/17 12:11:24;;;;;;;12.23;10.95;;;12.80;99.90;;;;;;4946419;29;20079;-86
2023/04/17 12:13:53;;;;;;;13.90;11.95;;;12.70;99.90;;;;;;4933721;29;20115;-86
2023/04/17 12:16:19;;;;;;;21.38;17.75;;;12.70;99.90;;;;;;4943070;29;20068;-86
2023/04/17 12:18:45;;;;;;;18.60;15.80;;;12.60;99.90;;;;;;4954808;29;20032;-86
2023/04/17 12:21:11;;;;;;;17.65;13.23;;;12.60;99.90;;;;;;4955157;29;20028;-86
2023/04/17 12:23:37;;;;;;;14.82;12.45;;;12.80;99.90;;;;;;4954137;29;20468;-87
2023/04/17 12:26:02;;;;;;;15.35;12.60;;;12.80;99.90;;;;;;4954760;29;20035;-86
2023/04/17 12:28:29;;;;;;;16.05;13.50;;;12.80;99.90;;;;;;4954771;29;20090;-86
2023/04/17 12:30:55;;;;;;;15.07;13.27;;;12.80;99.90;;;;;;4955013;29;20485;-86
2023/04/17 12:33:21;;;;;;;14.45;12.88;;;12.80;99.90;;;;;;4954836;29;20023;-86
2023/04/17 12:35:46;;;;;;;16.02;13.38;;;12.80;99.90;;;;;;4954704;29;20430;-86
2023/04/17 12:38:12;;;;;;;15.00;13.48;;;12.90;99.90;;;;;;4958060;28;20027;-87